createdAt,value
2019-01-16T04:01:09.899Z,985.86
2019-01-16T04:02:10.329Z,985.85
2019-01-16T04:03:10.516Z,985.83
2019-01-16T04:04:10.851Z,985.81
2019-01-16T04:05:13.702Z,985.77
2019-01-16T04:07:11.165Z,985.74
2019-01-16T04:09:45.193Z,985.73
2019-01-16T04:10:48.113Z,985.71
2019-01-16T04:11:45.268Z,985.72
2019-01-16T04:12:45.545Z,985.64
2019-01-16T04:13:46.104Z,985.68
2019-01-16T04:15:46.293Z,985.70
2019-01-16T04:16:46.428Z,985.68
2019-01-16T04:17:46.517Z,985.69
2019-01-16T04:18:44.412Z,985.68
2019-01-16T04:19:44.543Z,985.69
2019-01-16T04:20:44.650Z,985.61
2019-01-16T04:21:44.746Z,985.59
2019-01-16T04:22:44.864Z,985.63
2019-01-16T04:23:45.032Z,985.61
2019-01-16T04:24:45.204Z,985.57
2019-01-16T04:25:45.333Z,985.57
2019-01-16T04:26:45.449Z,985.61
2019-01-16T04:27:45.639Z,985.57
2019-01-16T04:28:45.810Z,985.50
2019-01-16T04:29:46.019Z,985.52
2019-01-16T04:30:46.149Z,985.53
2019-01-16T04:31:46.314Z,985.49
2019-01-16T04:32:46.411Z,985.52
2019-01-16T04:33:46.613Z,985.52
2019-01-16T04:34:46.726Z,985.50
2019-01-16T04:35:46.948Z,985.49
2019-01-16T04:36:47.112Z,985.52
2019-01-16T04:37:47.256Z,985.50
2019-01-16T04:38:47.409Z,985.46
2019-01-16T04:39:48.365Z,985.44
2019-01-16T04:40:47.785Z,985.37
2019-01-16T04:41:47.908Z,985.39
2019-01-16T04:42:48.148Z,985.42
2019-01-16T04:43:48.266Z,985.38
2019-01-16T04:44:48.426Z,985.39
2019-01-16T04:45:48.564Z,985.38
2019-01-16T04:46:48.754Z,985.37
2019-01-16T04:47:48.904Z,985.38
2019-01-16T04:48:49.133Z,985.39
2019-01-16T04:49:49.265Z,985.38
2019-01-16T04:50:49.364Z,985.32
2019-01-16T04:51:49.497Z,985.34
2019-01-16T04:52:49.700Z,985.34
2019-01-16T04:53:49.878Z,985.36
2019-01-16T04:54:50.078Z,985.39
2019-01-16T04:55:51.168Z,985.33
2019-01-16T04:56:50.421Z,985.32
2019-01-16T04:57:50.523Z,985.36
2019-01-16T04:58:50.693Z,985.33
2019-01-16T04:59:50.889Z,985.31
2019-01-16T05:00:51.106Z,985.29
2019-01-16T05:01:51.281Z,985.27
2019-01-16T05:02:51.425Z,985.26
2019-01-16T05:03:51.685Z,985.28
2019-01-16T05:04:51.910Z,985.22
2019-01-16T05:05:52.917Z,985.25
2019-01-16T05:06:52.150Z,985.26
2019-01-16T05:07:52.409Z,985.22
2019-01-16T05:08:53.327Z,985.22
2019-01-16T05:09:52.741Z,985.22
2019-01-16T05:10:52.909Z,985.21
2019-01-16T05:11:53.030Z,985.18
2019-01-16T05:12:53.271Z,985.15
2019-01-16T05:13:53.494Z,985.18
2019-01-16T05:14:53.639Z,985.14
2019-01-16T05:15:53.826Z,985.16
2019-01-16T05:16:53.945Z,985.16
2019-01-16T05:17:54.253Z,985.15
2019-01-16T05:18:54.284Z,985.20
2019-01-16T05:19:54.582Z,985.15
2019-01-16T05:20:55.378Z,985.17
2019-01-16T05:21:54.757Z,985.16
2019-01-16T05:22:54.815Z,985.20
2019-01-16T05:23:55.014Z,985.15
2019-01-16T05:24:55.121Z,985.11
2019-01-16T05:25:55.271Z,985.16
2019-01-16T05:26:55.461Z,985.15
2019-01-16T05:27:55.602Z,985.13
2019-01-16T05:28:55.781Z,985.12
2019-01-16T05:29:55.916Z,985.03
2019-01-16T05:30:56.026Z,985.12
2019-01-16T05:31:56.238Z,985.15
2019-01-16T05:32:56.421Z,985.10
2019-01-16T05:33:56.558Z,985.08
2019-01-16T05:34:56.734Z,985.15
2019-01-16T05:35:56.771Z,985.09
2019-01-16T05:36:57.019Z,985.09
2019-01-16T05:37:57.195Z,985.11
2019-01-16T05:38:57.489Z,985.06
2019-01-16T05:39:57.675Z,985.11
2019-01-16T05:40:57.776Z,984.98
2019-01-16T05:41:58.953Z,985.05
2019-01-16T05:42:58.121Z,985.06
2019-01-16T05:43:58.297Z,985.08
2019-01-16T05:44:58.537Z,985.05
2019-01-16T05:45:59.548Z,985.06
2019-01-16T05:46:58.906Z,985.02
2019-01-16T05:47:58.989Z,985.03
2019-01-16T05:48:59.684Z,985.00
2019-01-16T05:49:59.339Z,985.01
2019-01-16T05:50:59.478Z,984.98
2019-01-16T05:51:59.644Z,985.05
2019-01-16T05:52:59.858Z,985.04
2019-01-16T05:54:00.034Z,984.99
2019-01-16T05:55:00.192Z,985.00
2019-01-16T05:56:00.434Z,984.99
2019-01-16T05:57:00.476Z,984.94
2019-01-16T05:58:00.814Z,984.94
2019-01-16T05:59:00.928Z,984.95
2019-01-16T06:00:01.208Z,984.90
2019-01-16T06:01:04.688Z,985.00
2019-01-16T06:02:01.405Z,984.89
2019-01-16T06:03:15.939Z,984.90
2019-01-16T06:04:03.985Z,984.87
2019-01-16T06:06:04.409Z,984.89
2019-01-16T06:07:04.639Z,984.93
2019-01-16T06:08:04.884Z,984.89
2019-01-16T06:09:05.018Z,984.90
2019-01-16T06:10:04.655Z,984.94
2019-01-16T06:11:04.422Z,984.96
2019-01-16T06:12:03.550Z,984.91
2019-01-16T06:13:03.324Z,984.92
2019-01-16T06:14:03.484Z,984.90
2019-01-16T06:15:03.681Z,984.87
2019-01-16T06:16:19.632Z,984.82
2019-01-16T06:17:15.241Z,984.87
2019-01-16T06:18:15.816Z,984.83
2019-01-16T06:19:09.464Z,984.87
2019-01-16T06:24:44.669Z,984.89
2019-01-16T06:25:44.482Z,984.84
2019-01-16T06:26:45.718Z,984.81
2019-01-16T06:27:44.368Z,984.86
2019-01-16T06:28:44.915Z,984.82
2019-01-16T06:29:44.005Z,984.81
2019-01-16T06:30:43.439Z,984.82
2019-01-16T06:31:42.682Z,984.80
2019-01-16T06:32:42.686Z,984.80
2019-01-16T06:33:42.821Z,984.70
2019-01-16T06:34:42.900Z,984.75
2019-01-16T06:35:43.039Z,984.74
2019-01-16T06:36:43.169Z,984.76
2019-01-16T06:37:43.384Z,984.69
2019-01-16T06:38:43.668Z,984.73
2019-01-16T06:39:43.633Z,984.74
2019-01-16T06:40:54.634Z,984.75
2019-01-16T06:41:46.200Z,984.73
2019-01-16T06:42:45.188Z,984.73
2019-01-16T06:43:44.272Z,984.77
2019-01-16T06:44:44.434Z,984.72
2019-01-16T06:45:44.641Z,984.70
2019-01-16T06:46:44.869Z,984.70
2019-01-16T06:47:44.966Z,984.68
2019-01-16T06:48:45.213Z,984.65
2019-01-16T06:49:45.292Z,984.67
2019-01-16T06:50:45.491Z,984.63
2019-01-16T06:51:45.593Z,984.61
2019-01-16T06:52:45.687Z,984.62
2019-01-16T06:53:45.893Z,984.63
2019-01-16T06:54:46.140Z,984.66
2019-01-16T06:55:46.258Z,984.62
2019-01-16T06:56:46.520Z,984.62
2019-01-16T06:57:46.716Z,984.64
2019-01-16T06:58:46.765Z,984.63
2019-01-16T06:59:46.967Z,984.59
2019-01-16T07:00:47.192Z,984.61
2019-01-16T07:01:47.289Z,984.59
2019-01-16T07:02:47.467Z,984.60
2019-01-16T07:03:47.653Z,984.61
2019-01-16T07:04:47.846Z,984.61
2019-01-16T07:05:48.033Z,984.58
2019-01-16T07:06:48.133Z,984.57
2019-01-16T07:07:48.336Z,984.62
2019-01-16T07:08:48.663Z,984.57
2019-01-16T07:09:48.610Z,984.54
2019-01-16T07:10:48.845Z,984.62
2019-01-16T07:11:48.993Z,984.59
2019-01-16T07:12:49.202Z,984.61
2019-01-16T07:13:49.457Z,984.63
2019-01-16T07:14:49.648Z,984.68
2019-01-16T07:15:49.687Z,984.63
2019-01-16T07:16:49.762Z,984.55
2019-01-16T07:17:49.952Z,984.61
2019-01-16T07:18:50.169Z,984.57
2019-01-16T07:19:50.295Z,984.62
2019-01-16T07:20:50.589Z,984.61
2019-01-16T07:21:51.599Z,984.64
2019-01-16T07:22:50.810Z,984.60
2019-01-16T07:23:50.943Z,984.59
2019-01-16T07:24:51.154Z,984.60
2019-01-16T07:25:51.280Z,984.57
2019-01-16T07:26:51.493Z,984.60
2019-01-16T07:27:51.673Z,984.66
2019-01-16T07:28:51.886Z,984.64
2019-01-16T07:29:52.054Z,984.57
2019-01-16T07:30:52.205Z,984.56
2019-01-16T07:31:52.392Z,984.60
2019-01-16T07:32:52.492Z,984.58
2019-01-16T07:33:52.649Z,984.59
2019-01-16T07:34:52.951Z,984.66
2019-01-16T07:35:52.997Z,984.67
2019-01-16T07:36:53.773Z,984.67
2019-01-16T07:37:53.305Z,984.71
2019-01-16T07:38:54.534Z,984.74
2019-01-16T08:59:48.824Z,984.80
2019-01-16T09:00:40.840Z,984.75
2019-01-16T09:01:40.637Z,984.72
2019-01-16T09:02:42.173Z,984.76
2019-01-16T09:03:40.842Z,984.72
2019-01-16T09:04:41.160Z,984.74
2019-01-16T09:05:41.222Z,984.68
2019-01-16T09:06:40.077Z,984.76
2019-01-16T09:07:39.258Z,984.74
2019-01-16T09:08:39.459Z,984.73
2019-01-16T09:09:39.714Z,984.73
2019-01-16T09:10:39.791Z,984.76
2019-01-16T09:11:40.030Z,984.69
2019-01-16T09:12:41.088Z,984.77
2019-01-16T09:13:40.335Z,984.74
2019-01-16T09:14:41.196Z,984.70
2019-01-16T09:15:40.723Z,984.73
2019-01-16T09:16:40.780Z,984.73
2019-01-16T09:17:42.302Z,984.74
2019-01-16T09:18:41.190Z,984.73
2019-01-16T09:19:41.341Z,984.76
2019-01-16T09:20:41.691Z,984.80
2019-01-16T09:21:41.806Z,984.78
2019-01-16T09:22:41.923Z,984.70
2019-01-16T09:23:42.069Z,984.71
2019-01-16T09:24:42.238Z,984.71
2019-01-16T09:25:53.691Z,984.69
2019-01-16T09:26:45.169Z,984.79
2019-01-16T09:27:45.256Z,984.72
2019-01-16T09:28:45.186Z,984.74
2019-01-16T09:30:45.318Z,984.77
2019-01-16T09:31:45.793Z,984.73
2019-01-16T09:32:45.834Z,984.80
2019-01-16T09:33:46.003Z,984.79
2019-01-16T09:34:46.247Z,984.73
2019-01-16T09:35:46.253Z,984.72
2019-01-16T09:36:44.555Z,984.79
2019-01-16T09:37:44.631Z,984.68
2019-01-16T09:38:45.185Z,984.66
2019-01-16T09:39:44.872Z,984.65
2019-01-16T09:40:45.113Z,984.64
2019-01-16T09:41:45.069Z,984.54
2019-01-16T09:42:45.210Z,984.57
2019-01-16T09:43:45.762Z,984.55
2019-01-16T09:44:45.805Z,984.45
2019-01-16T09:45:45.836Z,984.54
2019-01-16T09:46:45.914Z,984.49
2019-01-16T09:47:47.401Z,984.55
2019-01-16T09:48:46.374Z,984.53
2019-01-16T09:49:46.820Z,984.51
2019-01-16T09:50:48.049Z,984.50
2019-01-16T09:51:46.758Z,984.47
2019-01-16T09:52:46.932Z,984.46
2019-01-16T09:53:47.201Z,984.48
2019-01-16T09:54:47.637Z,984.48
2019-01-16T09:55:58.173Z,984.51
2019-01-16T10:04:51.428Z,984.26
2019-01-16T10:05:50.777Z,984.22
2019-01-16T10:06:59.401Z,984.22
2019-01-16T10:07:51.945Z,984.28
2019-01-16T10:08:50.714Z,984.18
2019-01-16T10:09:51.239Z,984.27
2019-01-16T10:10:51.786Z,984.28
2019-01-16T10:13:34.098Z,984.40
2019-01-16T10:14:38.460Z,984.33
2019-01-16T10:15:35.071Z,984.37
2019-01-16T10:16:43.735Z,984.32
2019-01-16T10:17:34.030Z,984.33
2019-01-16T10:18:33.960Z,984.31
2019-01-16T10:19:34.293Z,984.42
2019-01-16T10:22:40.783Z,984.37
2019-01-16T10:23:41.195Z,984.33
2019-01-16T10:25:41.542Z,984.33
2019-01-16T10:26:41.524Z,984.29
2019-01-16T10:27:44.006Z,984.28
2019-01-16T10:28:41.862Z,984.22
2019-01-16T10:29:42.179Z,984.23
2019-01-16T10:30:42.171Z,984.25
2019-01-16T10:31:42.396Z,984.25
2019-01-16T10:32:44.306Z,984.24
2019-01-16T10:33:42.939Z,984.24
2019-01-16T10:34:52.664Z,984.22
2019-01-16T10:35:43.937Z,984.25
2019-01-16T10:36:43.496Z,984.25
2019-01-16T10:37:43.775Z,984.25
2019-01-16T10:38:43.687Z,984.21
2019-01-16T10:39:43.822Z,984.27
2019-01-16T10:40:43.726Z,984.23
2019-01-16T10:41:44.326Z,984.23
2019-01-16T10:42:45.599Z,984.18
2019-01-16T10:43:45.751Z,984.05
2019-01-16T10:44:43.905Z,984.14
2019-01-16T10:45:42.408Z,984.08
2019-01-16T10:46:42.764Z,983.94
2019-01-16T10:47:58.464Z,983.94
2019-01-16T10:48:49.632Z,983.92
2019-01-16T10:49:56.203Z,983.93
2019-01-16T10:50:45.788Z,983.93
2019-01-16T10:51:47.430Z,983.93
2019-01-16T10:52:46.480Z,983.88
2019-01-16T10:53:47.514Z,983.90
2019-01-16T10:57:05.750Z,983.97
2019-01-16T10:58:06.725Z,983.96
2019-01-16T10:59:36.583Z,983.93
2019-01-16T11:00:23.915Z,983.93
2019-01-16T11:01:08.607Z,983.89
2019-01-16T11:02:07.112Z,983.88
2019-01-16T11:03:06.643Z,983.86
2019-01-16T11:06:29.181Z,983.82
2019-01-16T11:08:29.480Z,983.79
2019-01-16T11:09:29.684Z,983.84
2019-01-16T11:10:29.944Z,983.79
2019-01-16T11:11:41.690Z,983.79
2019-01-16T11:12:27.847Z,983.73
2019-01-16T11:13:37.716Z,983.66
2019-01-16T11:15:30.531Z,983.56
2019-01-16T11:16:30.911Z,983.57
2019-01-16T11:17:32.481Z,983.55
2019-01-16T11:18:32.730Z,983.52
2019-01-16T11:19:31.694Z,983.46
2019-01-16T11:20:31.080Z,983.45
2019-01-16T11:21:29.372Z,983.45
2019-01-16T11:22:29.331Z,983.43
2019-01-16T11:23:29.547Z,983.45
2019-01-16T11:24:29.666Z,983.36
2019-01-16T11:25:29.683Z,983.33
2019-01-16T11:26:30.189Z,983.37
2019-01-16T11:27:30.075Z,983.42
2019-01-16T11:30:44.836Z,983.24
2019-01-16T11:31:44.784Z,983.28
2019-01-16T11:32:44.724Z,983.33
2019-01-16T11:33:45.181Z,983.20
2019-01-16T11:34:44.771Z,983.19
2019-01-16T11:35:45.489Z,983.19
2019-01-16T11:36:45.786Z,983.24
2019-01-16T11:37:46.330Z,983.21
2019-01-16T11:38:45.512Z,983.21
2019-01-16T11:39:46.557Z,983.19
2019-01-16T11:40:46.272Z,983.21
2019-01-16T11:41:46.037Z,983.17
2019-01-16T11:42:46.266Z,983.15
2019-01-16T11:43:44.422Z,983.23
2019-01-16T11:44:44.188Z,983.15
2019-01-16T11:45:44.379Z,983.17
2019-01-16T11:46:44.461Z,983.18
2019-01-16T11:47:44.703Z,983.19
2019-01-16T11:48:44.843Z,983.15
2019-01-16T11:49:44.969Z,983.08
2019-01-16T11:50:45.151Z,983.09
2019-01-16T11:51:45.290Z,983.05
2019-01-16T11:52:45.516Z,983.02
2019-01-16T11:53:45.600Z,983.02
2019-01-16T11:54:45.851Z,983.01
2019-01-16T11:55:46.088Z,982.99
2019-01-16T11:56:46.210Z,982.95
2019-01-16T11:57:46.343Z,982.93
2019-01-16T11:58:46.560Z,982.86
2019-01-16T11:59:46.852Z,982.90
2019-01-16T12:00:46.905Z,982.87
2019-01-16T12:01:47.060Z,982.84
2019-01-16T12:02:47.211Z,982.87
2019-01-16T12:03:47.345Z,982.76
2019-01-16T12:04:48.794Z,982.79
2019-01-16T12:05:47.628Z,982.70
2019-01-16T12:06:47.831Z,982.68
2019-01-16T12:07:48.003Z,982.67
2019-01-16T12:08:48.166Z,982.68
2019-01-16T12:09:48.307Z,982.69
2019-01-16T12:10:48.563Z,982.63
2019-01-16T12:11:48.674Z,982.63
2019-01-16T12:12:48.841Z,982.63
2019-01-16T12:13:49.078Z,982.64
2019-01-16T12:14:49.165Z,982.62
2019-01-16T12:15:49.270Z,982.57
2019-01-16T12:16:49.410Z,982.57
2019-01-16T12:17:49.684Z,982.56
2019-01-16T12:18:49.836Z,982.57
2019-01-16T12:19:49.962Z,982.49
2019-01-16T12:20:50.183Z,982.47
2019-01-16T12:21:50.319Z,982.39
2019-01-16T12:22:50.547Z,982.44
2019-01-16T12:23:50.685Z,982.40
2019-01-16T12:24:50.951Z,982.36
2019-01-16T12:25:51.044Z,982.36
2019-01-16T12:26:51.142Z,982.40
2019-01-16T12:27:51.271Z,982.43
2019-01-16T12:28:51.759Z,982.25
2019-01-16T12:29:51.821Z,982.29
2019-01-16T12:30:51.964Z,982.27
2019-01-16T12:31:52.097Z,982.27
2019-01-16T12:32:52.285Z,982.24
2019-01-16T12:33:52.448Z,982.38
2019-01-16T12:34:52.484Z,982.28
2019-01-16T12:35:52.734Z,982.28
2019-01-16T12:36:52.870Z,982.20
2019-01-16T12:37:53.041Z,982.17
2019-01-16T12:38:53.279Z,982.17
2019-01-16T12:39:53.500Z,982.06
2019-01-16T12:40:53.603Z,982.07
2019-01-16T12:41:59.499Z,981.98
2019-01-16T12:42:53.947Z,982.02
2019-01-16T12:43:54.195Z,982.12
2019-01-16T12:44:54.251Z,982.02
2019-01-16T12:45:54.609Z,982.01
2019-01-16T12:48:38.157Z,981.98
2019-01-16T12:49:36.423Z,981.95
2019-01-16T12:50:37.122Z,981.89
2019-01-16T12:51:36.835Z,982.01
2019-01-16T12:52:36.829Z,982.03
2019-01-16T12:53:37.098Z,981.98
2019-01-16T12:54:37.219Z,982.09
2019-01-16T12:55:37.353Z,982.11
2019-01-16T12:56:37.555Z,982.13
2019-01-16T12:57:37.743Z,982.12
2019-01-16T12:58:37.827Z,982.06
2019-01-16T12:59:38.067Z,982.04
2019-01-16T13:00:38.179Z,982.04
2019-01-16T13:01:38.296Z,982.10
2019-01-16T13:02:38.520Z,982.11
2019-01-16T13:03:38.739Z,982.13
2019-01-16T13:04:38.827Z,982.07
2019-01-16T13:05:39.089Z,982.07
2019-01-16T13:06:39.266Z,981.97
2019-01-16T13:07:39.379Z,981.97
2019-01-16T13:08:39.608Z,981.92
2019-01-16T13:09:39.762Z,981.93
2019-01-16T13:10:39.891Z,981.99
2019-01-16T13:11:40.117Z,981.94
2019-01-16T13:12:40.190Z,981.98
2019-01-16T13:13:40.417Z,981.91
2019-01-16T13:14:40.619Z,981.99
2019-01-16T13:15:40.707Z,981.97
2019-01-16T13:16:40.930Z,981.94
2019-01-16T13:17:41.117Z,981.86
2019-01-16T13:18:41.258Z,981.75
2019-01-16T13:19:41.341Z,981.86
2019-01-16T13:20:41.503Z,981.74
2019-01-16T13:21:41.729Z,981.75
2019-01-16T13:22:45.979Z,981.87
2019-01-16T13:23:41.963Z,981.79
2019-01-16T13:24:42.182Z,981.75
2019-01-16T13:25:42.402Z,981.79
2019-01-16T13:26:42.543Z,981.71
2019-01-16T13:27:42.734Z,981.76
2019-01-16T13:28:42.837Z,981.73
2019-01-16T13:29:43.011Z,981.67
2019-01-16T13:30:43.102Z,981.70
2019-01-16T13:31:43.344Z,981.67
2019-01-16T13:32:43.427Z,981.71
2019-01-16T13:33:43.631Z,981.72
2019-01-16T13:34:43.798Z,981.66
2019-01-16T13:35:44.017Z,981.66
2019-01-16T13:36:44.146Z,981.72
2019-01-16T13:37:44.253Z,981.71
2019-01-16T13:38:44.351Z,981.62
2019-01-16T13:39:44.546Z,981.63
2019-01-16T13:40:44.813Z,981.52
2019-01-16T13:41:44.935Z,981.63
2019-01-16T13:42:45.130Z,981.64
2019-01-16T13:43:45.288Z,981.59
2019-01-16T13:44:45.454Z,981.57
2019-01-16T13:45:45.610Z,981.63
2019-01-16T13:46:45.751Z,981.53
2019-01-16T13:47:45.949Z,981.56
2019-01-16T13:48:46.021Z,981.54
2019-01-16T13:49:46.242Z,981.71
2019-01-16T13:50:46.432Z,981.67
2019-01-16T13:51:46.588Z,981.55
2019-01-16T13:52:46.731Z,981.56
2019-01-16T13:53:46.932Z,981.53
2019-01-16T13:54:47.022Z,981.47
2019-01-16T13:55:47.186Z,981.49
2019-01-16T13:56:47.301Z,981.55
2019-01-16T13:57:47.604Z,981.49
2019-01-16T13:58:47.726Z,981.39
2019-01-16T13:59:47.906Z,981.40
2019-01-16T14:00:48.669Z,981.37
2019-01-16T14:01:48.283Z,981.39
2019-01-16T14:02:48.385Z,981.43
2019-01-16T14:03:48.634Z,981.33
2019-01-16T14:04:48.756Z,981.49
2019-01-16T14:05:48.834Z,981.28
2019-01-16T14:06:48.990Z,981.27
2019-01-16T14:07:49.384Z,981.28
2019-01-16T14:08:49.266Z,981.26
2019-01-16T14:09:49.483Z,981.21
2019-01-16T14:10:49.585Z,981.23
2019-01-16T14:11:49.786Z,981.23
2019-01-16T14:12:49.926Z,981.41
2019-01-16T14:13:50.211Z,981.14
2019-01-16T14:15:00.396Z,981.14
2019-01-16T14:15:51.890Z,981.12
2019-01-16T14:16:50.707Z,981.10
2019-01-16T14:17:50.875Z,981.03
2019-01-16T14:18:51.022Z,981.13
2019-01-16T14:19:51.129Z,981.08
2019-01-16T14:20:51.354Z,980.97
2019-01-16T14:21:53.086Z,980.97
2019-01-16T14:22:51.741Z,980.95
2019-01-16T14:23:51.759Z,981.00
2019-01-16T14:24:52.020Z,981.01
2019-01-16T14:25:52.177Z,981.00
2019-01-16T14:26:52.315Z,980.93
2019-01-16T14:27:52.450Z,980.97
2019-01-16T14:28:52.607Z,980.94
2019-01-16T14:29:52.789Z,980.91
2019-01-16T14:30:52.910Z,980.89
2019-01-16T14:31:53.090Z,980.95
2019-01-16T14:32:53.326Z,980.96
2019-01-16T14:33:53.448Z,980.90
2019-01-16T14:34:53.602Z,980.93
2019-01-16T14:35:53.756Z,980.98
2019-01-16T14:36:53.963Z,980.94
2019-01-16T14:37:54.082Z,980.89
2019-01-16T14:38:54.260Z,980.85
2019-01-16T14:39:54.372Z,980.80
2019-01-16T14:40:54.568Z,980.82
2019-01-16T14:41:54.688Z,980.82
2019-01-16T14:42:54.862Z,980.80
2019-01-16T14:43:55.015Z,980.72
2019-01-16T14:44:55.243Z,980.80
2019-01-16T14:45:55.384Z,980.67
2019-01-16T14:46:55.548Z,980.66
2019-01-16T14:47:55.680Z,980.71
2019-01-16T14:48:55.878Z,980.65
2019-01-16T14:49:56.000Z,980.74
2019-01-16T14:50:56.100Z,980.69
2019-01-16T14:51:59.610Z,980.58
2019-01-16T14:52:56.505Z,980.59
2019-01-16T14:53:56.669Z,980.54
2019-01-16T14:54:56.699Z,980.56
2019-01-16T14:55:56.961Z,980.56
2019-01-16T14:56:57.176Z,980.58
2019-01-16T14:57:57.266Z,980.54
2019-01-16T14:58:57.521Z,980.52
2019-01-16T14:59:57.511Z,980.51
2019-01-16T15:00:57.773Z,980.74
2019-01-16T15:01:57.929Z,980.60
2019-01-16T15:02:58.031Z,980.58
2019-01-16T15:03:58.232Z,980.56
2019-01-16T15:04:58.365Z,980.60
2019-01-16T15:05:58.469Z,980.65
2019-01-16T15:06:58.700Z,980.66
2019-01-16T15:07:58.853Z,980.61
2019-01-16T15:09:00.047Z,980.58
2019-01-16T15:09:59.213Z,980.50
2019-01-16T15:10:59.356Z,980.40
2019-01-16T15:11:59.478Z,980.43
2019-01-16T15:12:59.638Z,980.43
2019-01-16T15:13:59.816Z,980.40
2019-01-16T15:14:59.974Z,980.41
2019-01-16T15:16:00.146Z,980.37
2019-01-16T15:17:00.263Z,980.35
2019-01-16T15:18:00.441Z,980.35
2019-01-16T15:19:00.635Z,980.34
2019-01-16T15:20:00.800Z,980.32
2019-01-16T15:21:00.959Z,980.32
2019-01-16T15:22:06.184Z,980.32
2019-01-16T15:23:01.311Z,980.39
2019-01-16T15:24:01.411Z,980.37
2019-01-16T15:25:01.580Z,980.35
2019-01-16T15:26:01.678Z,980.36
2019-01-16T15:27:01.862Z,980.25
2019-01-16T15:28:02.069Z,980.23
2019-01-16T15:29:02.174Z,980.29
2019-01-16T15:30:02.373Z,980.25
2019-01-16T15:31:02.521Z,980.23
2019-01-16T15:32:02.711Z,980.18
2019-01-16T15:33:02.824Z,980.18
2019-01-16T15:34:03.033Z,980.21
2019-01-16T15:35:03.282Z,980.22
2019-01-16T15:36:03.400Z,980.18
2019-01-16T15:37:03.470Z,980.24
2019-01-16T15:38:03.653Z,980.21
2019-01-16T15:39:03.832Z,980.15
2019-01-16T15:40:04.024Z,980.17
2019-01-16T15:41:04.187Z,980.14
2019-01-16T15:42:04.293Z,980.10
2019-01-16T15:43:04.526Z,980.11
2019-01-16T15:44:04.615Z,980.17
2019-01-16T15:45:04.794Z,980.14
2019-01-16T15:46:05.031Z,980.12
2019-01-16T15:47:05.235Z,980.02
2019-01-16T15:48:05.348Z,980.01
2019-01-16T15:49:05.520Z,980.04
2019-01-16T15:50:05.735Z,979.98
2019-01-16T15:51:05.847Z,979.96
2019-01-16T15:52:06.069Z,979.96
2019-01-16T15:53:06.205Z,979.99
2019-01-16T15:54:06.304Z,979.97
2019-01-16T15:55:07.303Z,979.91
2019-01-16T15:56:06.625Z,979.91
2019-01-16T15:57:06.770Z,979.86
2019-01-16T15:58:06.909Z,979.85
2019-01-16T15:59:07.138Z,979.92
2019-01-16T16:00:07.221Z,979.90
2019-01-16T16:01:07.378Z,979.88
2019-01-16T16:02:07.582Z,979.86
2019-01-16T16:03:07.733Z,979.86
2019-01-16T16:04:07.819Z,979.76
2019-01-16T16:05:08.064Z,979.75
2019-01-16T16:06:08.172Z,979.74
2019-01-16T16:07:08.339Z,979.72
2019-01-16T16:08:08.567Z,979.71
2019-01-16T16:09:09.625Z,979.66
2019-01-16T16:10:08.789Z,979.66
2019-01-16T16:11:09.000Z,979.69
2019-01-16T16:12:09.165Z,979.65
2019-01-16T16:13:09.312Z,979.66
2019-01-16T16:14:09.468Z,979.64
2019-01-16T16:15:09.621Z,979.64
2019-01-16T16:16:09.830Z,979.64
2019-01-16T16:17:09.953Z,979.58
2019-01-16T16:18:10.116Z,979.61
2019-01-16T16:19:10.271Z,979.58
2019-01-16T16:20:10.418Z,979.56
2019-01-16T16:21:10.521Z,979.50
2019-01-16T16:22:10.803Z,979.47
2019-01-16T16:23:10.915Z,979.52
2019-01-16T16:24:11.062Z,979.46
2019-01-16T16:25:11.240Z,979.42
2019-01-16T16:26:11.411Z,979.39
2019-01-16T16:27:11.523Z,979.34
2019-01-16T16:28:11.724Z,979.34
2019-01-16T16:29:11.886Z,979.33
2019-01-16T16:30:11.969Z,979.32
2019-01-16T16:31:12.178Z,979.38
2019-01-16T16:32:12.297Z,979.35
2019-01-16T16:33:12.514Z,979.37
2019-01-16T16:34:12.727Z,979.40
2019-01-16T16:35:12.825Z,979.47
2019-01-16T16:36:13.003Z,979.45
2019-01-16T16:37:13.105Z,979.46
2019-01-16T16:38:13.437Z,979.39
2019-01-16T16:39:13.558Z,979.41
2019-01-16T16:40:14.524Z,979.39
2019-01-16T16:41:13.939Z,979.42
2019-01-16T16:42:14.019Z,979.42
2019-01-16T16:43:14.212Z,979.39
2019-01-16T16:44:14.370Z,979.39
2019-01-16T16:45:14.538Z,979.39
2019-01-16T16:46:15.320Z,979.36
2019-01-16T16:47:15.227Z,979.29
2019-01-16T17:17:44.133Z,978.99
2019-01-16T17:23:36.026Z,979.02
2019-01-16T17:24:37.367Z,978.90
2019-01-16T17:25:36.668Z,978.95
2019-01-16T17:26:36.782Z,978.99
2019-01-16T17:27:37.754Z,978.93
2019-01-16T17:28:35.580Z,978.91
2019-01-16T17:29:35.046Z,978.91
2019-01-16T17:30:35.079Z,978.95
2019-01-16T17:31:35.171Z,978.90
2019-01-16T17:32:35.318Z,978.84
2019-01-16T17:33:35.900Z,978.84
2019-01-16T17:34:36.243Z,978.80
2019-01-16T17:35:36.942Z,978.84
2019-01-16T17:36:47.688Z,978.79
2019-01-16T17:37:38.265Z,978.79
2019-01-16T17:38:37.090Z,978.82
2019-01-16T17:41:10.807Z,978.69
2019-01-16T17:42:11.481Z,978.69
2019-01-16T17:43:09.661Z,978.60
2019-01-16T17:44:09.560Z,978.67
2019-01-16T17:45:09.855Z,978.64
2019-01-16T17:46:09.871Z,978.63
2019-01-16T17:47:10.072Z,978.64
2019-01-16T17:48:10.171Z,978.61
2019-01-16T17:49:10.356Z,978.61
2019-01-16T17:50:10.492Z,978.63
2019-01-16T17:51:10.673Z,978.67
2019-01-16T17:52:10.803Z,978.60
2019-01-16T17:53:11.053Z,978.57
2019-01-16T17:54:11.396Z,978.59
2019-01-16T17:55:11.387Z,978.59
2019-01-16T17:56:11.515Z,978.53
2019-01-16T17:57:11.655Z,978.55
2019-01-16T17:58:11.830Z,978.57
2019-01-16T17:59:12.102Z,978.53
2019-01-16T18:00:12.177Z,978.51
2019-01-16T18:01:12.298Z,978.50
2019-01-16T18:02:12.412Z,978.39
2019-01-16T18:03:12.669Z,978.38
2019-01-16T18:04:12.754Z,978.39
2019-01-16T18:05:12.925Z,978.40
2019-01-16T18:06:13.084Z,978.39
2019-01-16T18:07:13.330Z,978.36
2019-01-16T18:08:13.456Z,978.40
2019-01-16T18:09:13.661Z,978.37
2019-01-16T18:10:13.756Z,978.37
2019-01-16T18:11:13.958Z,978.35
2019-01-16T18:12:14.166Z,978.29
2019-01-16T18:13:14.327Z,978.24
2019-01-16T18:14:14.467Z,978.07
2019-01-16T18:15:14.654Z,978.02
2019-01-16T18:16:14.759Z,978.07
2019-01-16T18:17:15.208Z,978.11
2019-01-16T18:18:15.102Z,978.16
2019-01-16T18:19:15.290Z,978.18
2019-01-16T18:20:15.340Z,978.19
2019-01-16T18:21:15.479Z,978.21
2019-01-16T18:22:15.745Z,978.24
2019-01-16T18:23:15.870Z,978.21
2019-01-16T18:24:16.033Z,978.24
2019-01-16T18:25:16.198Z,978.25
2019-01-16T18:26:16.357Z,978.13
2019-01-16T18:27:16.462Z,978.03
2019-01-16T18:28:16.877Z,978.06
2019-01-16T18:29:16.925Z,978.01
2019-01-16T18:30:17.106Z,977.97
2019-01-16T18:31:17.242Z,978.00
2019-01-16T18:32:17.423Z,978.00
2019-01-16T18:33:17.603Z,977.98
2019-01-16T18:34:17.744Z,978.02
2019-01-16T18:35:17.912Z,977.99
2019-01-16T18:36:18.119Z,977.95
2019-01-16T18:37:18.240Z,977.89
2019-01-16T18:38:18.458Z,977.91
2019-01-16T18:39:18.570Z,977.89
2019-01-16T18:40:18.752Z,977.86
2019-01-16T18:41:18.855Z,977.84
2019-01-16T18:42:19.009Z,977.86
2019-01-16T18:43:19.132Z,977.86
2019-01-16T18:44:19.395Z,977.85
2019-01-16T18:45:19.492Z,977.85
2019-01-16T18:46:19.627Z,977.79
2019-01-16T18:47:19.756Z,977.90
2019-01-16T18:48:19.928Z,977.94
2019-01-16T18:49:20.105Z,977.90
2019-01-16T18:50:20.235Z,977.86
2019-01-16T18:51:20.425Z,977.82
2019-01-16T18:52:20.765Z,977.89
2019-01-16T18:53:20.754Z,977.81
2019-01-16T18:54:21.124Z,977.84
2019-01-16T18:55:21.359Z,977.87
2019-01-16T18:56:21.510Z,977.88
2019-01-16T18:57:21.550Z,977.85
2019-01-16T18:58:21.636Z,977.71
2019-01-16T18:59:21.948Z,977.75
2019-01-16T19:00:21.966Z,977.69